LFJL/ETZ METAR and TAF weather

Enter ICAO airport designator
Station Type Date Time Source
LFJL METAR 2018/12/13 08:00 UTC NOAA

LFJL 130800Z AUTO 07010KT CAVOK M02/M03 Q1016 TEMPO 08015G25KT BKN013


Station Type Date Time Source
LFJL Decoded METAR 2018/12/13 08:00 UTC NOAA

Metz-Nancy-Lorraine, France (LFJL) 48-59N 006-15E
Dec 13, 2018 - 03:00 AM EST / 2018.12.13 0800 UTC
Wind: from the ENE (070 degrees) at 12 MPH (10 KT):0
Visibility: greater than 7 mile(s):0
Temperature: 28 F (-2 C)
Windchill: 17 F (-8 C):1
Dew Point: 26 F (-3 C)
Relative Humidity: 92%
Pressure (altimeter): 30.00 in. Hg (1016 hPa)
ob: LFJL 130800Z AUTO 07010KT CAVOK M02/M03 Q1016 TEMPO 08015G25KT BKN013
cycle: 8

Station Type Date Time Source
LFJL TAF 2018/12/13 06:21 UTC NOAA

TAF LFJL 130500Z 1306/1406 07012KT 9999 FEW015 PROB40
TEMPO 1306/1312 BKN013
TEMPO 1309/1315 08015G25KT


Example: see airport list